createdAt,value
2023-01-05T00:01:16.409Z,8.92
2023-01-05T00:04:17.879Z,8.85
2023-01-05T00:07:19.502Z,8.83
2023-01-05T00:10:21.048Z,8.92
2023-01-05T00:13:23.854Z,8.92
2023-01-05T00:16:25.523Z,8.93
2023-01-05T00:19:27.096Z,8.79
2023-01-05T00:22:28.980Z,8.98
2023-01-05T00:25:31.562Z,8.84
2023-01-05T00:28:34.494Z,8.81
2023-01-05T00:31:36.066Z,8.84
2023-01-05T00:34:37.543Z,8.80
2023-01-05T00:37:39.612Z,8.71
2023-01-05T00:40:41.057Z,8.83
2023-01-05T00:43:43.903Z,8.81
2023-01-05T00:46:45.370Z,8.89
2023-01-05T00:49:46.878Z,8.88
2023-01-05T00:52:48.351Z,9.12
2023-01-05T00:55:56.375Z,8.89
2023-01-05T00:58:59.185Z,8.94
2023-01-05T01:02:00.853Z,8.98
2023-01-05T01:05:02.570Z,8.86
2023-01-05T01:08:05.284Z,8.85
2023-01-05T01:11:07.951Z,8.82
2023-01-05T01:14:12.644Z,8.92
2023-01-05T01:17:14.118Z,8.96
2023-01-05T01:20:15.721Z,8.96
2023-01-05T01:23:17.177Z,8.95
2023-01-05T01:26:18.973Z,9.05
2023-01-05T01:29:21.950Z,9.09
2023-01-05T01:32:23.478Z,8.97
2023-01-05T01:35:24.946Z,8.97
2023-01-05T01:38:26.565Z,8.89
2023-01-05T01:41:28.896Z,9.20
2023-01-05T01:44:53.413Z,9.04
2023-01-05T01:47:58.953Z,9.04
2023-01-05T01:51:08.210Z,9.18
2023-01-05T01:54:12.197Z,9.23
2023-01-05T01:57:15.136Z,9.26
2023-01-05T02:00:18.950Z,9.18
2023-01-05T02:03:20.431Z,8.99
2023-01-05T02:06:23.115Z,9.11
2023-01-05T02:09:24.489Z,9.03
2023-01-05T02:12:32.581Z,9.03
2023-01-05T02:15:43.590Z,9.16
2023-01-05T02:19:07.408Z,9.35
2023-01-05T02:22:38.430Z,9.09
2023-01-05T02:26:19.278Z,9.10
2023-01-05T02:30:08.900Z,9.03
2023-01-05T02:33:16.585Z,9.10
2023-01-05T02:36:28.526Z,8.90
2023-01-05T02:39:37.767Z,8.65
2023-01-05T02:42:41.256Z,8.64
2023-01-05T02:45:42.868Z,8.60
2023-01-05T02:48:47.981Z,8.65
2023-01-05T02:51:51.407Z,8.55
2023-01-05T02:54:55.519Z,8.40
2023-01-05T02:58:01.347Z,8.47
2023-01-05T03:01:07.774Z,8.42
2023-01-05T03:04:14.337Z,8.42
2023-01-05T03:07:22.358Z,8.55
2023-01-05T03:10:24.246Z,8.48
2023-01-05T03:13:28.484Z,8.55
2023-01-05T03:16:35.100Z,8.60
2023-01-05T03:19:40.206Z,8.59
2023-01-05T03:22:45.167Z,8.61
2023-01-05T03:25:48.318Z,8.61
2023-01-05T03:28:53.677Z,8.55
2023-01-05T03:32:00.046Z,8.67
2023-01-05T03:35:05.873Z,8.65
2023-01-05T03:38:17.672Z,8.66
2023-01-05T03:41:22.695Z,8.68
2023-01-05T03:44:24.509Z,8.61
2023-01-05T03:47:27.371Z,8.60
2023-01-05T03:50:30.319Z,8.71
2023-01-05T03:53:32.907Z,8.60
2023-01-05T03:56:34.646Z,8.69
2023-01-05T03:59:36.232Z,8.63
2023-01-05T04:02:39.164Z,8.65
2023-01-05T04:05:42.887Z,8.59
2023-01-05T04:08:45.597Z,8.66
2023-01-05T04:11:47.260Z,8.79
2023-01-05T04:14:48.821Z,8.67
2023-01-05T04:17:50.367Z,8.72
2023-01-05T04:20:53.253Z,8.68
2023-01-05T04:23:55.988Z,8.62
2023-01-05T04:26:58.528Z,8.79
2023-01-05T04:30:02.086Z,8.59
2023-01-05T04:33:04.323Z,8.65
2023-01-05T04:36:07.983Z,8.61
2023-01-05T04:39:10.394Z,8.55
2023-01-05T04:42:13.066Z,8.38
2023-01-05T04:45:15.773Z,8.19
2023-01-05T04:48:17.897Z,8.08
2023-01-05T04:51:21.037Z,8.13
2023-01-05T04:54:22.797Z,8.12
2023-01-05T04:57:24.518Z,8.08
2023-01-05T05:00:27.167Z,8.06
2023-01-05T05:03:33.007Z,8.07
2023-01-05T05:06:36.797Z,8.10
2023-01-05T05:09:38.295Z,8.08
2023-01-05T05:12:39.849Z,8.12
2023-01-05T05:15:44.007Z,8.15
2023-01-05T05:18:46.813Z,8.26
2023-01-05T05:21:54.239Z,8.30
2023-01-05T05:24:55.987Z,8.21
2023-01-05T05:27:57.615Z,8.21
2023-01-05T05:30:59.155Z,8.25
2023-01-05T05:34:00.736Z,8.18
2023-01-05T05:37:14.888Z,8.29
2023-01-05T05:40:16.631Z,8.36
2023-01-05T05:43:18.122Z,8.42
2023-01-05T05:46:19.609Z,8.38
2023-01-05T05:49:21.166Z,8.39
2023-01-05T05:52:24.238Z,8.32
2023-01-05T05:55:25.700Z,8.37
2023-01-05T05:58:27.171Z,8.40
2023-01-05T06:01:28.978Z,8.37
2023-01-05T06:04:30.650Z,8.31
2023-01-05T06:07:33.445Z,8.34
2023-01-05T06:10:35.035Z,8.49
2023-01-05T06:13:36.683Z,8.50
2023-01-05T06:16:38.203Z,8.50
2023-01-05T06:19:39.815Z,8.38
2023-01-05T06:22:42.710Z,8.38
2023-01-05T06:25:44.302Z,8.29
2023-01-05T06:28:45.840Z,8.34
2023-01-05T06:31:47.333Z,8.41
2023-01-05T06:34:48.838Z,8.32
2023-01-05T06:37:51.669Z,8.34
2023-01-05T06:40:53.204Z,8.34
2023-01-05T06:43:54.706Z,8.37
2023-01-05T06:46:56.245Z,8.30
2023-01-05T06:49:57.753Z,8.24
2023-01-05T06:53:00.640Z,8.30
2023-01-05T06:56:02.070Z,8.20
2023-01-05T06:59:03.829Z,8.15
2023-01-05T07:02:05.356Z,8.14
2023-01-05T07:05:11.211Z,8.12
2023-01-05T07:08:14.562Z,8.12
2023-01-05T07:11:16.141Z,8.13
2023-01-05T07:14:17.754Z,8.15
2023-01-05T07:17:22.564Z,8.14
2023-01-05T07:20:24.007Z,8.08
2023-01-05T07:23:26.992Z,8.08
2023-01-05T07:26:28.562Z,8.10
2023-01-05T07:29:30.093Z,8.10
2023-01-05T07:32:36.949Z,8.12
2023-01-05T07:35:43.599Z,8.08
2023-01-05T07:38:47.697Z,8.14
2023-01-05T07:41:51.707Z,8.13
2023-01-05T07:44:53.199Z,8.06
2023-01-05T07:47:54.641Z,8.08
2023-01-05T07:50:59.679Z,8.18
2023-01-05T07:54:02.510Z,8.11
2023-01-05T07:57:06.081Z,8.19
2023-01-05T08:00:10.654Z,8.16
2023-01-05T08:03:18.841Z,8.16
2023-01-05T08:06:21.220Z,8.15
2023-01-05T08:09:24.048Z,8.18
2023-01-05T08:12:31.261Z,8.29
2023-01-05T08:15:34.294Z,8.28
2023-01-05T08:18:35.859Z,8.30
2023-01-05T08:21:46.732Z,8.36
2023-01-05T08:24:49.548Z,8.37
2023-01-05T08:27:54.091Z,8.35
2023-01-05T08:31:04.536Z,8.36
2023-01-05T08:34:06.030Z,8.39
2023-01-05T08:37:14.118Z,8.38
2023-01-05T08:40:17.043Z,8.35
2023-01-05T08:43:22.247Z,8.37
2023-01-05T08:46:25.166Z,8.36
2023-01-05T08:49:26.600Z,8.35
2023-01-05T08:52:28.111Z,8.29
2023-01-05T08:55:31.119Z,8.23
2023-01-05T08:58:32.634Z,8.21
2023-01-05T09:01:34.133Z,8.19
2023-01-05T09:04:37.063Z,8.16
2023-01-05T09:07:38.639Z,8.05
2023-01-05T09:10:50.873Z,7.96
2023-01-05T09:13:53.744Z,7.90
2023-01-05T09:17:11.442Z,8.00
2023-01-05T09:20:13.212Z,8.03
2023-01-05T09:23:14.640Z,8.15
2023-01-05T09:26:17.877Z,8.34
2023-01-05T09:29:25.538Z,8.31
2023-01-05T09:32:27.013Z,8.37
2023-01-05T09:35:35.313Z,8.43
2023-01-05T09:38:44.912Z,8.25
2023-01-05T09:41:51.647Z,8.20
2023-01-05T09:45:00.933Z,8.17
2023-01-05T09:48:14.019Z,8.18
2023-01-05T09:51:15.569Z,8.19
2023-01-05T09:54:19.137Z,8.08
2023-01-05T09:57:22.629Z,8.11
2023-01-05T10:00:25.294Z,8.03
2023-01-05T10:04:02.401Z,8.16
2023-01-05T10:06:55.455Z,8.07
2023-01-05T10:10:05.777Z,8.12
2023-01-05T10:13:24.644Z,8.01
2023-01-05T10:16:29.668Z,8.14
2023-01-05T10:19:31.615Z,8.02
2023-01-05T10:22:40.132Z,8.08
2023-01-05T10:25:46.178Z,7.97
2023-01-05T10:28:53.013Z,7.94
2023-01-05T10:31:56.520Z,8.04
2023-01-05T10:35:12.138Z,7.91
2023-01-05T10:38:33.448Z,7.94
2023-01-05T10:41:50.213Z,7.95
2023-01-05T10:44:55.313Z,7.94
2023-01-05T10:48:00.461Z,7.98
2023-01-05T10:51:02.690Z,7.95
2023-01-05T10:54:05.420Z,7.98
2023-01-05T10:57:39.850Z,8.03
2023-01-05T11:00:45.811Z,8.08
2023-01-05T11:07:15.458Z,8.17
2023-01-05T11:10:22.813Z,8.11
2023-01-05T11:13:37.090Z,8.13
2023-01-05T11:16:46.949Z,8.19
2023-01-05T11:19:57.287Z,8.19
2023-01-05T11:22:58.738Z,8.38
2023-01-05T11:26:20.191Z,8.34
2023-01-05T11:29:21.692Z,8.37
2023-01-05T11:32:24.680Z,8.34
2023-01-05T11:38:51.713Z,8.40
2023-01-05T11:41:53.653Z,8.42
2023-01-05T11:44:58.358Z,8.24
2023-01-05T11:48:02.271Z,8.17
2023-01-05T11:51:10.884Z,8.41
2023-01-05T11:54:34.579Z,8.51
2023-01-05T11:57:39.071Z,8.61
2023-01-05T12:00:51.191Z,8.56
2023-01-05T12:04:00.448Z,8.53
2023-01-05T12:07:12.480Z,8.54
2023-01-05T12:10:35.348Z,8.56
2023-01-05T12:13:59.068Z,8.60
2023-01-05T12:17:04.206Z,8.48
2023-01-05T12:20:25.805Z,8.16
2023-01-05T12:26:57.384Z,7.88
2023-01-05T12:34:07.256Z,8.02
2023-01-05T12:37:30.805Z,8.07
2023-01-05T12:40:45.347Z,8.11
2023-01-05T12:43:54.923Z,8.20
2023-01-05T12:47:13.920Z,8.23
2023-01-05T12:50:27.041Z,8.05
2023-01-05T12:53:44.176Z,8.17
2023-01-05T12:56:48.264Z,8.20
2023-01-05T13:00:03.494Z,8.09
2023-01-05T13:03:15.585Z,8.18
2023-01-05T13:06:25.988Z,8.18
2023-01-05T13:09:31.205Z,8.28
2023-01-05T13:12:34.030Z,8.37
2023-01-05T13:15:40.637Z,8.35
2023-01-05T13:18:49.485Z,8.43
2023-01-05T13:21:52.657Z,8.53
2023-01-05T13:25:06.348Z,8.50
2023-01-05T13:28:18.231Z,8.46
2023-01-05T13:31:39.022Z,8.48
2023-01-05T13:34:51.786Z,8.42
2023-01-05T13:38:04.207Z,8.49
2023-01-05T13:41:24.390Z,8.48
2023-01-05T13:44:58.837Z,8.49
2023-01-05T13:48:33.737Z,8.48
2023-01-05T13:51:54.591Z,8.41
2023-01-05T13:55:14.435Z,8.34
2023-01-05T13:58:33.959Z,8.35
2023-01-05T14:01:37.688Z,8.36
2023-01-05T14:04:45.550Z,8.38
2023-01-05T14:07:51.069Z,8.38
2023-01-05T14:11:12.862Z,8.32
2023-01-05T14:14:27.273Z,8.29
2023-01-05T14:17:55.826Z,8.21
2023-01-05T14:21:04.865Z,8.17
2023-01-05T14:24:26.620Z,8.13
2023-01-05T14:27:34.986Z,8.09
2023-01-05T14:30:37.736Z,8.01
2023-01-05T14:33:46.624Z,8.04
2023-01-05T14:37:04.364Z,7.95
2023-01-05T14:40:30.421Z,7.92
2023-01-05T14:43:33.636Z,7.91
2023-01-05T14:46:52.664Z,7.79
2023-01-05T14:49:58.581Z,7.79
2023-01-05T14:53:03.297Z,7.76
2023-01-05T14:56:16.855Z,7.75
2023-01-05T14:59:24.081Z,7.69
2023-01-05T15:02:43.927Z,7.70
2023-01-05T15:06:06.724Z,7.72
2023-01-05T15:09:24.806Z,7.72
2023-01-05T15:12:45.158Z,7.78
2023-01-05T15:15:51.835Z,7.78
2023-01-05T15:19:13.803Z,7.78
2023-01-05T15:22:38.169Z,7.79
2023-01-05T15:26:03.348Z,7.76
2023-01-05T15:29:35.178Z,7.75
2023-01-05T15:32:43.528Z,7.75
2023-01-05T15:35:54.196Z,7.69
2023-01-05T15:38:55.927Z,7.64
2023-01-05T15:42:00.037Z,7.71
2023-01-05T15:45:01.735Z,7.77
2023-01-05T15:48:08.482Z,7.75
2023-01-05T15:51:22.535Z,7.76
2023-01-05T15:54:27.411Z,7.71
2023-01-05T15:57:31.825Z,7.71
2023-01-05T16:00:39.448Z,7.68
2023-01-05T16:03:48.101Z,7.69
2023-01-05T16:06:56.481Z,7.72
2023-01-05T16:09:57.943Z,7.62
2023-01-05T16:13:04.750Z,7.64
2023-01-05T16:16:12.914Z,7.59
2023-01-05T16:19:22.844Z,7.58
2023-01-05T16:22:30.438Z,7.62
2023-01-05T16:25:34.485Z,7.64
2023-01-05T16:28:35.966Z,7.63
2023-01-05T16:31:37.428Z,7.61
2023-01-05T16:34:38.851Z,7.57
2023-01-05T16:38:02.128Z,7.56
2023-01-05T16:41:08.942Z,7.48
2023-01-05T16:44:13.314Z,7.45
2023-01-05T16:47:29.998Z,7.39
2023-01-05T16:50:52.827Z,7.35
2023-01-05T16:53:57.815Z,7.36
2023-01-05T16:57:01.154Z,7.32
2023-01-05T17:00:04.197Z,7.31
2023-01-05T17:03:32.661Z,7.33
2023-01-05T17:06:34.444Z,7.32
2023-01-05T17:09:37.273Z,7.36
2023-01-05T17:12:38.831Z,7.35
2023-01-05T17:15:44.175Z,7.38
2023-01-05T17:18:45.984Z,7.40
2023-01-05T17:21:48.631Z,7.36
2023-01-05T17:24:51.971Z,7.35
2023-01-05T17:27:54.296Z,7.36
2023-01-05T17:31:02.590Z,7.32
2023-01-05T17:34:15.401Z,7.26
2023-01-05T17:37:17.099Z,7.27
2023-01-05T17:40:24.812Z,7.27
2023-01-05T17:43:28.304Z,7.24
2023-01-05T17:46:31.235Z,7.16
2023-01-05T17:49:35.753Z,7.10
2023-01-05T17:52:37.264Z,7.13
2023-01-05T17:55:41.047Z,7.11
2023-01-05T17:58:42.754Z,7.14
2023-01-05T18:01:44.260Z,7.15
2023-01-05T18:04:46.019Z,7.14
2023-01-05T18:07:48.309Z,7.16
2023-01-05T18:10:57.399Z,7.14
2023-01-05T18:13:58.875Z,7.17
2023-01-05T18:17:01.873Z,7.17
2023-01-05T18:20:04.516Z,7.15
2023-01-05T18:26:14.260Z,7.09
2023-01-05T18:29:15.800Z,7.01
2023-01-05T18:32:17.564Z,7.02
2023-01-05T18:35:19.234Z,7.09
2023-01-05T18:38:20.767Z,7.09
2023-01-05T18:41:26.927Z,7.05
2023-01-05T18:44:28.459Z,7.01
2023-01-05T18:47:30.172Z,6.99
2023-01-05T18:50:31.678Z,6.98
2023-01-05T18:53:33.526Z,6.83
2023-01-05T18:56:36.236Z,6.81
2023-01-05T18:59:37.776Z,6.71
2023-01-05T19:02:39.864Z,6.61
2023-01-05T19:05:43.044Z,6.63
2023-01-05T19:08:52.014Z,6.66
2023-01-05T19:11:56.626Z,6.65
2023-01-05T19:14:58.073Z,6.67
2023-01-05T19:18:06.664Z,6.63
2023-01-05T19:21:09.080Z,6.67
2023-01-05T19:24:14.155Z,6.77
2023-01-05T19:27:16.988Z,6.87
2023-01-05T19:30:18.436Z,6.89
2023-01-05T19:33:20.182Z,6.86
2023-01-05T19:36:23.294Z,6.87
2023-01-05T19:39:25.816Z,6.91
2023-01-05T19:42:28.736Z,6.85
2023-01-05T19:45:30.324Z,6.82
2023-01-05T19:48:33.623Z,6.74
2023-01-05T19:51:35.258Z,6.74
2023-01-05T19:54:36.761Z,6.70
2023-01-05T19:57:39.695Z,6.69
2023-01-05T20:00:41.243Z,6.80
2023-01-05T20:03:43.659Z,6.67
2023-01-05T20:06:45.760Z,6.77
2023-01-05T20:09:48.869Z,6.78
2023-01-05T20:12:52.306Z,6.76
2023-01-05T20:15:56.004Z,6.79
2023-01-05T20:18:57.641Z,6.80
2023-01-05T20:22:00.516Z,6.81
2023-01-05T20:25:02.109Z,6.90
2023-01-05T20:28:05.012Z,6.91
2023-01-05T20:31:20.411Z,6.84
2023-01-05T20:34:26.370Z,6.87
2023-01-05T20:37:32.318Z,6.87
2023-01-05T20:40:33.872Z,6.94
2023-01-05T20:43:36.710Z,6.99
2023-01-05T20:46:47.922Z,7.07
2023-01-05T20:49:49.396Z,7.08
2023-01-05T20:52:50.931Z,7.07
2023-01-05T20:55:52.419Z,7.16
2023-01-05T20:58:55.433Z,7.20
2023-01-05T21:02:12.342Z,7.17
2023-01-05T21:05:22.456Z,7.26
2023-01-05T21:08:24.485Z,7.25
2023-01-05T21:11:26.022Z,7.26
2023-01-05T21:14:28.923Z,7.25
2023-01-05T21:17:30.435Z,7.29
2023-01-05T21:20:31.918Z,7.34
2023-01-05T21:23:36.435Z,7.33
2023-01-05T21:26:37.873Z,7.26
2023-01-05T21:29:40.756Z,7.27
2023-01-05T21:32:42.239Z,7.28
2023-01-05T21:35:43.772Z,7.30
2023-01-05T21:39:01.387Z,7.36
2023-01-05T21:42:05.078Z,7.38
2023-01-05T21:45:09.920Z,7.39
2023-01-05T21:48:12.608Z,7.38
2023-01-05T21:51:14.251Z,7.35
2023-01-05T21:54:19.573Z,7.37
2023-01-05T21:57:21.168Z,7.35
2023-01-05T22:00:24.260Z,7.39
2023-01-05T22:03:28.946Z,7.45
2023-01-05T22:06:31.326Z,7.43
2023-01-05T22:09:32.863Z,7.50
2023-01-05T22:12:34.535Z,7.50
2023-01-05T22:15:37.469Z,7.47
2023-01-05T22:18:39.584Z,7.48
2023-01-05T22:21:41.099Z,7.45
2023-01-05T22:24:42.595Z,7.47
2023-01-05T22:27:44.048Z,7.44
2023-01-05T22:30:46.895Z,7.46
2023-01-05T22:33:50.971Z,7.46
2023-01-05T22:36:53.010Z,7.48
2023-01-05T22:39:54.456Z,7.51
2023-01-05T22:42:55.904Z,7.52
2023-01-05T22:46:02.628Z,7.57
2023-01-05T22:49:04.317Z,7.57
2023-01-05T22:52:07.434Z,7.59
2023-01-05T22:55:09.192Z,7.59
2023-01-05T22:58:10.947Z,7.58
2023-01-05T23:01:16.132Z,7.59
2023-01-05T23:04:21.567Z,7.61
2023-01-05T23:07:23.015Z,7.63
2023-01-05T23:10:24.509Z,7.66
2023-01-05T23:13:26.022Z,7.69
2023-01-05T23:16:28.881Z,7.71
2023-01-05T23:19:30.561Z,7.73
2023-01-05T23:22:32.099Z,7.75
2023-01-05T23:25:33.776Z,7.79
2023-01-05T23:28:35.353Z,7.77
2023-01-05T23:31:38.172Z,7.75
2023-01-05T23:34:40.864Z,7.77
2023-01-05T23:37:42.432Z,7.76
2023-01-05T23:40:45.119Z,7.79
2023-01-05T23:43:46.939Z,7.80
2023-01-05T23:46:49.639Z,7.85
2023-01-05T23:49:51.135Z,7.88
2023-01-05T23:52:52.634Z,7.87
2023-01-05T23:56:04.493Z,7.87
2023-01-05T23:59:07.721Z,7.91
